Time;durP1;ratioP1;P1;durP2;ratioP2;P2;SDS_P1;SDS_P2;PMS_P1;PMS_P2;Temp;Humidity;BMP_temperature;BMP_pressure;BME280_temperature;BME280_humidity;BME280_pressure;Samples;Min_cycle;Max_cycle;Signal;HPM_P1;HPM_P2
2022/04/04 00:01:22;;;;;;;5.03;2.65;;;;;;;;;;1841379;76;21111;-54
2022/04/04 00:03:51;;;;;;;14.58;3.20;;;;;;;;;;1841428;78;21118;-55
2022/04/04 00:06:19;;;;;;;7.65;2.70;;;;;;;;;;1841450;78;21033;-55
2022/04/04 00:08:48;;;;;;;8.15;2.60;;;;;;;;;;1841345;78;21110;-55
2022/04/04 00:11:17;;;;;;;8.58;2.55;;;;;;;;;;1841456;77;21024;-55
2022/04/04 00:13:46;;;;;;;9.00;3.05;;;;;;;;;;1841458;76;21136;-54
2022/04/04 00:16:14;;;;;;;8.63;2.60;;;;;;;;;;1841424;77;21036;-55
2022/04/04 00:18:43;;;;;;;7.58;3.75;;;;;;;;;;1841439;77;21029;-55
2022/04/04 00:21:12;;;;;;;10.32;3.00;;;;;;;;;;1841426;77;21157;-54
2022/04/04 00:23:41;;;;;;;8.40;2.65;;;;;;;;;;1841473;78;21048;-55
2022/04/04 00:26:09;;;;;;;5.05;2.45;;;;;;;;;;1841401;78;21040;-55
2022/04/04 00:28:38;;;;;;;7.55;2.70;;;;;;;;;;1841500;77;21032;-55
2022/04/04 00:31:07;;;;;;;9.38;2.58;;;;;;;;;;1841503;76;21110;-53
2022/04/04 00:33:36;;;;;;;7.00;2.75;;;;;;;;;;1841534;78;21057;-54
2022/04/04 00:36:06;;;;;;;6.05;3.45;;;;;;;;;;1841396;77;21033;-54
2022/04/04 00:38:35;;;;;;;6.42;2.25;;;;;;;;;;1841402;77;21090;-54
2022/04/04 00:41:05;;;;;;;7.97;2.42;;;;;;;;;;1841405;77;21049;-53
2022/04/04 00:43:34;;;;;;;6.10;2.72;;;;;;;;;;1837335;77;21032;-54
2022/04/04 00:46:02;;;;;;;7.72;2.58;;;;;;;;;;1841480;78;21079;-54
2022/04/04 00:48:31;;;;;;;7.72;3.00;;;;;;;;;;1841539;77;21098;-55
2022/04/04 00:51:00;;;;;;;9.03;2.50;;;;;;;;;;1841406;77;21072;-54
2022/04/04 00:53:29;;;;;;;8.83;2.95;;;;;;;;;;1841407;78;21106;-55
2022/04/04 00:56:00;;;;;;;5.65;2.25;;;;;;;;;;1839254;77;21077;-55
2022/04/04 00:58:30;;;;;;;9.18;2.58;;;;;;;;;;1827241;78;21040;-54
2022/04/04 01:01:02;;;;;;;5.30;2.40;;;;;;;;;;1827105;78;21043;-54
2022/04/04 01:03:30;;;;;;;6.17;2.00;;;;;;;;;;1827194;78;21052;-54
2022/04/04 01:05:59;;;;;;;7.00;2.20;;;;;;;;;;1827105;77;21122;-52
2022/04/04 01:08:28;;;;;;;4.53;1.98;;;;;;;;;;1827150;77;21048;-54
2022/04/04 01:10:57;;;;;;;4.78;2.00;;;;;;;;;;1827076;78;21110;-55
2022/04/04 01:13:26;;;;;;;4.72;2.30;;;;;;;;;;1827146;76;21572;-55
2022/04/04 01:15:54;;;;;;;4.33;2.22;;;;;;;;;;1827157;77;21291;-54
2022/04/04 01:18:23;;;;;;;6.15;2.30;;;;;;;;;;1827121;77;21051;-54
2022/04/04 01:20:52;;;;;;;5.58;2.10;;;;;;;;;;1827112;78;21181;-55
2022/04/04 01:23:25;;;;;;;9.70;2.95;;;;;;;;;;1827245;77;21126;-54
2022/04/04 01:25:54;;;;;;;8.98;2.42;;;;;;;;;;1827308;78;21055;-55
2022/04/04 01:28:23;;;;;;;3.92;2.15;;;;;;;;;;1827315;76;21165;-54
2022/04/04 01:30:51;;;;;;;7.37;2.37;;;;;;;;;;1827259;77;21048;-55
2022/04/04 01:33:20;;;;;;;6.45;2.12;;;;;;;;;;1827344;77;21052;-55
2022/04/04 01:35:49;;;;;;;5.10;1.75;;;;;;;;;;1827399;77;21138;-55
2022/04/04 01:38:18;;;;;;;4.35;1.95;;;;;;;;;;1827509;77;21056;-55
2022/04/04 01:40:48;;;;;;;4.03;1.82;;;;;;;;;;1827295;78;21055;-55
2022/04/04 01:43:17;;;;;;;2.67;1.85;;;;;;;;;;1827440;77;21044;-55
2022/04/04 01:48:36;;;;;;;10.70;2.87;;;;;;;;;;1827342;77;21091;-55
2022/04/04 01:51:04;;;;;;;3.70;1.60;;;;;;;;;;1827310;77;21087;-55
2022/04/04 01:53:34;;;;;;;6.03;2.05;;;;;;;;;;1827301;77;21075;-54
2022/04/04 01:56:03;;;;;;;7.85;2.20;;;;;;;;;;1827402;76;21184;-55
2022/04/04 01:58:32;;;;;;;6.12;2.35;;;;;;;;;;1827257;77;21369;-55
2022/04/04 02:01:04;;;;;;;4.58;2.08;;;;;;;;;;1827308;77;21126;-55
2022/04/04 02:03:32;;;;;;;5.50;2.08;;;;;;;;;;1827289;78;21094;-55
2022/04/04 02:06:02;;;;;;;3.72;2.10;;;;;;;;;;1827291;77;21051;-55
2022/04/04 02:08:31;;;;;;;6.58;2.47;;;;;;;;;;1827299;76;21118;-55
2022/04/04 02:11:00;;;;;;;12.07;2.58;;;;;;;;;;1827230;77;21032;-55
2022/04/04 02:13:29;;;;;;;5.37;2.42;;;;;;;;;;1827360;76;21052;-55
2022/04/04 02:16:00;;;;;;;9.68;2.67;;;;;;;;;;1827375;77;21079;-55
2022/04/04 02:18:29;;;;;;;5.72;2.37;;;;;;;;;;1827226;78;21126;-55
2022/04/04 02:20:58;;;;;;;17.07;7.00;;;;;;;;;;1827295;78;21020;-55
2022/04/04 02:23:27;;;;;;;23.40;8.18;;;;;;;;;;1827250;78;21098;-55
2022/04/04 02:25:56;;;;;;;8.80;3.52;;;;;;;;;;1827296;77;21098;-55
2022/04/04 02:28:26;;;;;;;6.65;3.37;;;;;;;;;;1827261;77;21804;-55
2022/04/04 02:30:55;;;;;;;9.38;2.98;;;;;;;;;;1827122;78;21036;-55
2022/04/04 02:33:24;;;;;;;4.28;2.55;;;;;;;;;;1827268;77;21113;-54
2022/04/04 02:35:53;;;;;;;5.60;2.50;;;;;;;;;;1827232;77;21063;-55
2022/04/04 02:38:27;;;;;;;4.58;2.25;;;;;;;;;;1827260;77;21047;-55
2022/04/04 02:40:56;;;;;;;9.50;2.37;;;;;;;;;;1827162;77;21048;-54
2022/04/04 02:43:25;;;;;;;7.25;2.80;;;;;;;;;;1827279;78;21474;-55
2022/04/04 02:45:54;;;;;;;6.90;2.60;;;;;;;;;;1827222;77;21059;-54
2022/04/04 02:48:23;;;;;;;7.42;3.35;;;;;;;;;;1827137;76;21095;-55
2022/04/04 02:50:52;;;;;;;6.72;2.37;;;;;;;;;;1827119;77;21059;-55
2022/04/04 02:53:21;;;;;;;5.60;2.30;;;;;;;;;;1827161;77;21126;-55
2022/04/04 02:58:36;;;;;;;4.22;2.77;;;;;;;;;;1827300;77;21142;-55
2022/04/04 03:01:05;;;;;;;9.65;2.95;;;;;;;;;;1827236;77;21105;-55
2022/04/04 03:03:34;;;;;;;4.83;2.70;;;;;;;;;;1827283;78;21056;-55
2022/04/04 03:06:03;;;;;;;8.83;2.65;;;;;;;;;;1827161;77;21389;-55
2022/04/04 03:08:31;;;;;;;8.15;2.42;;;;;;;;;;1827266;77;21110;-55
2022/04/04 03:11:00;;;;;;;6.95;2.52;;;;;;;;;;1827139;77;21064;-55
2022/04/04 03:13:29;;;;;;;7.72;3.40;;;;;;;;;;1827142;77;21118;-55
2022/04/04 03:15:58;;;;;;;8.03;2.92;;;;;;;;;;1827368;77;21048;-55
2022/04/04 03:18:26;;;;;;;5.12;2.50;;;;;;;;;;1827241;77;21031;-55
2022/04/04 03:20:55;;;;;;;6.20;2.87;;;;;;;;;;1827330;77;21048;-55
2022/04/04 03:23:26;;;;;;;10.15;3.08;;;;;;;;;;1827247;77;21060;-55
2022/04/04 03:25:54;;;;;;;3.70;2.25;;;;;;;;;;1827447;77;21485;-54
2022/04/04 03:28:23;;;;;;;4.62;1.85;;;;;;;;;;1827213;77;21106;-54
2022/04/04 03:30:52;;;;;;;8.85;2.30;;;;;;;;;;1827311;77;21052;-54
2022/04/04 03:33:21;;;;;;;2.95;2.40;;;;;;;;;;1827199;77;21051;-54
2022/04/04 03:35:50;;;;;;;7.10;2.80;;;;;;;;;;1827181;77;21111;-54
2022/04/04 03:38:18;;;;;;;6.67;2.55;;;;;;;;;;1827262;77;21051;-54
2022/04/04 03:40:47;;;;;;;7.55;2.58;;;;;;;;;;1827102;76;21233;-54
2022/04/04 03:43:16;;;;;;;15.03;3.17;;;;;;;;;;1827194;77;21122;-54
2022/04/04 03:45:45;;;;;;;10.30;2.77;;;;;;;;;;1827115;78;21044;-54
2022/04/04 03:48:14;;;;;;;4.42;2.30;;;;;;;;;;1827233;77;21051;-54
2022/04/04 03:50:45;;;;;;;7.60;2.98;;;;;;;;;;1827087;77;21098;-53
2022/04/04 03:53:14;;;;;;;5.78;2.47;;;;;;;;;;1827101;77;21176;-54
2022/04/04 03:55:43;;;;;;;6.97;2.58;;;;;;;;;;1827148;78;21186;-54
2022/04/04 03:58:12;;;;;;;6.28;2.30;;;;;;;;;;1833266;77;21068;-54
2022/04/04 04:00:41;;;;;;;12.40;3.10;;;;;;;;;;1841504;78;21036;-54
2022/04/04 04:03:10;;;;;;;6.03;2.52;;;;;;;;;;1841574;77;21036;-54
2022/04/04 04:05:39;;;;;;;5.60;3.25;;;;;;;;;;1841467;78;21032;-54
2022/04/04 04:08:28;;;;;;;9.10;3.55;;;;;;;;;;1841443;78;21033;-54
2022/04/04 04:10:57;;;;;;;3.65;2.17;;;;;;;;;;1841399;78;21036;-54
2022/04/04 04:13:26;;;;;;;7.80;2.87;;;;;;;;;;1841378;78;21041;-54
2022/04/04 04:15:54;;;;;;;4.25;3.25;;;;;;;;;;1841473;77;21169;-54
2022/04/04 04:18:23;;;;;;;12.05;3.10;;;;;;;;;;1841476;78;21084;-54
2022/04/04 04:20:52;;;;;;;8.33;2.90;;;;;;;;;;1841456;78;21036;-54
2022/04/04 04:23:20;;;;;;;15.05;6.67;;;;;;;;;;1841469;78;21036;-54
2022/04/04 04:25:49;;;;;;;10.10;2.90;;;;;;;;;;1841495;77;21052;-54
2022/04/04 04:28:18;;;;;;;5.50;2.52;;;;;;;;;;1841426;78;21044;-54
2022/04/04 04:30:47;;;;;;;6.72;3.35;;;;;;;;;;1841330;76;21044;-54
2022/04/04 04:33:15;;;;;;;6.67;3.60;;;;;;;;;;1841489;77;21040;-54
2022/04/04 04:35:44;;;;;;;9.10;3.42;;;;;;;;;;1841389;77;21052;-54
2022/04/04 04:38:13;;;;;;;8.78;3.02;;;;;;;;;;1841540;77;21088;-54
2022/04/04 04:40:42;;;;;;;6.40;2.87;;;;;;;;;;1841343;77;21048;-54
2022/04/04 04:43:10;;;;;;;7.60;3.72;;;;;;;;;;1841434;77;21040;-55
2022/04/04 04:45:39;;;;;;;11.73;2.85;;;;;;;;;;1841541;77;21060;-55
2022/04/04 04:48:08;;;;;;;6.42;2.58;;;;;;;;;;1841365;77;21052;-55
2022/04/04 04:50:37;;;;;;;13.30;3.25;;;;;;;;;;1841336;77;21028;-55
2022/04/04 04:53:07;;;;;;;8.43;3.10;;;;;;;;;;1841444;78;21040;-55
2022/04/04 04:55:35;;;;;;;8.33;3.17;;;;;;;;;;1841563;78;21185;-55
2022/04/04 04:58:04;;;;;;;4.67;2.40;;;;;;;;;;1841428;77;21151;-55
2022/04/04 05:00:33;;;;;;;16.12;3.60;;;;;;;;;;1841554;77;21064;-55
2022/04/04 05:05:48;;;;;;;6.78;2.55;;;;;;;;;;1841536;78;21107;-55
2022/04/04 05:08:17;;;;;;;5.25;2.17;;;;;;;;;;1841454;77;21033;-55
2022/04/04 05:10:46;;;;;;;13.70;2.92;;;;;;;;;;1841548;77;21098;-55
2022/04/04 05:13:15;;;;;;;5.50;2.85;;;;;;;;;;1841577;78;21036;-55
2022/04/04 05:15:44;;;;;;;10.80;3.12;;;;;;;;;;1841588;76;21048;-55
2022/04/04 05:18:13;;;;;;;10.00;3.22;;;;;;;;;;1841568;78;21470;-55
2022/04/04 05:20:41;;;;;;;13.38;3.30;;;;;;;;;;1841476;78;21040;-55
2022/04/04 05:23:10;;;;;;;12.33;3.17;;;;;;;;;;1841508;78;21083;-55
2022/04/04 05:25:39;;;;;;;10.55;5.87;;;;;;;;;;1841445;78;21044;-55
2022/04/04 05:28:08;;;;;;;10.88;3.50;;;;;;;;;;1841404;76;21056;-55
2022/04/04 05:30:37;;;;;;;10.13;3.37;;;;;;;;;;1841372;76;21045;-55
2022/04/04 05:33:06;;;;;;;10.35;4.22;;;;;;;;;;1841471;77;21036;-55
2022/04/04 05:35:34;;;;;;;7.37;2.83;;;;;;;;;;1841420;77;21040;-55
2022/04/04 05:38:03;;;;;;;5.47;2.42;;;;;;;;;;1841519;78;21153;-55
2022/04/04 05:40:32;;;;;;;8.60;3.10;;;;;;;;;;1841368;78;21036;-55
2022/04/04 05:43:00;;;;;;;10.82;3.00;;;;;;;;;;1841386;78;21106;-55
2022/04/04 05:45:30;;;;;;;7.55;2.92;;;;;;;;;;1841470;76;21048;-55
2022/04/04 05:47:58;;;;;;;7.30;2.90;;;;;;;;;;1841408;77;21012;-55
2022/04/04 05:50:27;;;;;;;8.08;3.10;;;;;;;;;;1841387;78;21064;-55
2022/04/04 05:52:56;;;;;;;9.88;3.67;;;;;;;;;;1841333;78;21119;-55
2022/04/04 05:55:25;;;;;;;8.83;2.98;;;;;;;;;;1841531;76;21115;-55
2022/04/04 05:57:54;;;;;;;10.28;4.22;;;;;;;;;;1841424;78;21092;-55
2022/04/04 06:00:23;;;;;;;10.28;2.90;;;;;;;;;;1852076;76;21122;-55
2022/04/04 06:02:52;;;;;;;7.08;2.77;;;;;;;;;;1853145;77;21008;-55
2022/04/04 06:05:21;;;;;;;9.63;3.55;;;;;;;;;;1853062;77;21028;-55
2022/04/04 06:07:49;;;;;;;10.72;4.78;;;;;;;;;;1853019;77;21098;-55
2022/04/04 06:10:18;;;;;;;5.50;2.22;;;;;;;;;;1853067;76;21004;-55
2022/04/04 06:12:47;;;;;;;8.83;2.47;;;;;;;;;;1852904;77;21031;-55
2022/04/04 06:15:16;;;;;;;7.80;2.58;;;;;;;;;;1853046;77;21032;-55
2022/04/04 06:17:44;;;;;;;6.95;2.65;;;;;;;;;;1852965;76;21048;-55
2022/04/04 06:20:14;;;;;;;5.40;2.37;;;;;;;;;;1852960;77;21091;-55
2022/04/04 06:22:44;;;;;;;16.52;3.70;;;;;;;;;;1852980;76;21087;-55
2022/04/04 06:25:13;;;;;;;7.35;3.02;;;;;;;;;;1853093;76;21028;-55
2022/04/04 06:27:42;;;;;;;9.95;2.60;;;;;;;;;;1852926;76;21041;-55
2022/04/04 06:30:11;;;;;;;12.85;3.33;;;;;;;;;;1852999;76;21052;-55
2022/04/04 06:32:43;;;;;;;4.58;1.52;;;;;;;;;;1852968;77;21063;-55
2022/04/04 06:35:12;;;;;;;3.60;2.27;;;;;;;;;;1852972;77;21091;-55
2022/04/04 06:37:42;;;;;;;9.43;4.00;;;;;;;;;;1852891;76;21048;-55
2022/04/04 06:40:12;;;;;;;2.60;1.87;;;;;;;;;;1851858;76;21094;-55
2022/04/04 06:42:42;;;;;;;5.87;2.27;;;;;;;;;;1852907;77;21044;-55
2022/04/04 06:45:11;;;;;;;10.93;2.80;;;;;;;;;;1852030;77;21438;-55
2022/04/04 06:47:40;;;;;;;7.72;2.30;;;;;;;;;;1864559;76;21105;-55
2022/04/04 06:50:10;;;;;;;7.70;2.27;;;;;;;;;;1869868;76;21500;-54
2022/04/04 06:52:39;;;;;;;10.78;2.77;;;;;;;;;;1857099;76;21105;-54
2022/04/04 06:55:08;;;;;;;11.80;4.87;;;;;;;;;;1852760;76;21126;-53
2022/04/04 06:57:37;;;;;;;7.92;3.37;;;;;;;;;;1831432;77;21055;-55
2022/04/04 07:00:08;;;;;;;7.12;2.35;;;;;;;;;;1845631;76;21076;-54
2022/04/04 07:02:37;;;;;;;3.37;2.27;;;;;;;;;;1841155;77;21482;-55
2022/04/04 07:05:06;;;;;;;10.50;3.67;;;;;;;;;;1841355;78;21110;-55
2022/04/04 07:07:45;;;;;;;4.28;2.10;;;;;;;;;;1841317;77;21040;-54
2022/04/04 07:10:20;;;;;;;13.45;3.12;;;;;;;;;;1839203;77;21097;-53
2022/04/04 07:12:59;;;;;;;9.00;3.30;;;;;;;;;;1849403;77;21098;-55
2022/04/04 07:15:36;;;;;;;6.20;2.83;;;;;;;;;;1853880;76;21043;-54
2022/04/04 07:18:16;;;;;;;9.23;2.22;;;;;;;;;;1849710;77;21142;-55
2022/04/04 07:20:45;;;;;;;10.35;2.10;;;;;;;;;;1853303;77;21100;-55
2022/04/04 07:23:14;;;;;;;13.98;3.20;;;;;;;;;;1864288;77;21082;-54
2022/04/04 07:25:43;;;;;;;6.35;2.17;;;;;;;;;;1872423;77;21094;-55
2022/04/04 07:28:13;;;;;;;8.55;2.47;;;;;;;;;;1871558;77;21110;-55
2022/04/04 07:30:43;;;;;;;11.78;3.80;;;;;;;;;;1870282;77;21010;-55
2022/04/04 07:33:15;;;;;;;8.70;2.85;;;;;;;;;;1870328;77;21113;-55
2022/04/04 07:35:42;;;;;;;6.33;2.02;;;;;;;;;;1870701;76;21846;-55
2022/04/04 07:38:11;;;;;;;10.93;2.83;;;;;;;;;;1870787;77;21043;-55
2022/04/04 07:40:40;;;;;;;3.33;2.75;;;;;;;;;;1870814;77;21039;-55
2022/04/04 07:43:09;;;;;;;11.38;3.12;;;;;;;;;;1870872;77;21039;-55
2022/04/04 07:45:38;;;;;;;5.12;2.08;;;;;;;;;;1845880;77;21110;-55
2022/04/04 07:48:08;;;;;;;5.03;2.08;;;;;;;;;;1840797;77;21094;-54
2022/04/04 07:50:37;;;;;;;4.15;2.08;;;;;;;;;;1841591;77;21025;-55
2022/04/04 07:53:06;;;;;;;3.60;2.30;;;;;;;;;;1841112;77;21036;-55
2022/04/04 07:55:36;;;;;;;37.23;6.45;;;;;;;;;;1840329;77;21170;-54
2022/04/04 07:58:05;;;;;;;8.68;2.37;;;;;;;;;;1845751;76;21501;-51
2022/04/04 08:00:34;;;;;;;7.37;2.83;;;;;;;;;;1872016;76;21146;-51
2022/04/04 08:03:04;;;;;;;9.78;3.45;;;;;;;;;;1890216;76;21096;-51
2022/04/04 08:05:33;;;;;;;1.87;1.60;;;;;;;;;;1890708;76;21518;-48
2022/04/04 08:08:02;;;;;;;5.95;2.65;;;;;;;;;;1886124;76;21128;-47
2022/04/04 08:10:30;;;;;;;11.05;3.30;;;;;;;;;;1891007;76;21109;-51
2022/04/04 08:13:00;;;;;;;5.12;2.30;;;;;;;;;;1891307;76;21103;-48
2022/04/04 08:15:29;;;;;;;7.95;2.90;;;;;;;;;;1891012;76;21030;-52
2022/04/04 08:17:57;;;;;;;7.37;3.12;;;;;;;;;;1891103;76;21026;-50
2022/04/04 08:20:26;;;;;;;6.72;2.75;;;;;;;;;;1890683;76;21105;-50
2022/04/04 08:22:56;;;;;;;4.90;2.15;;;;;;;;;;1886571;76;21071;-51
2022/04/04 08:25:24;;;;;;;9.10;2.80;;;;;;;;;;1872590;76;21102;-50
2022/04/04 08:27:53;;;;;;;5.72;2.20;;;;;;;;;;1860804;77;21177;-49
2022/04/04 08:30:22;;;;;;;6.15;2.62;;;;;;;;;;1860793;76;21027;-51
2022/04/04 08:32:51;;;;;;;6.30;2.35;;;;;;;;;;1860450;77;21115;-51
2022/04/04 08:35:21;;;;;;;5.42;2.20;;;;;;;;;;1860753;76;21161;-48
2022/04/04 08:37:49;;;;;;;4.72;3.00;;;;;;;;;;1860979;76;21093;-51
2022/04/04 08:40:18;;;;;;;7.28;2.58;;;;;;;;;;1860973;77;21102;-51
2022/04/04 08:42:47;;;;;;;5.30;2.58;;;;;;;;;;1860368;76;21047;-51
2022/04/04 08:45:16;;;;;;;3.83;2.10;;;;;;;;;;1860592;76;21095;-51
2022/04/04 08:47:45;;;;;;;5.80;2.62;;;;;;;;;;1860585;76;21161;-51
2022/04/04 08:50:14;;;;;;;4.67;2.30;;;;;;;;;;1861091;76;21056;-51
2022/04/04 08:52:43;;;;;;;10.58;2.80;;;;;;;;;;1860884;77;21162;-48
2022/04/04 08:55:15;;;;;;;5.03;2.95;;;;;;;;;;1861088;76;21044;-51
2022/04/04 08:57:42;;;;;;;2.83;1.55;;;;;;;;;;1860928;76;21652;-50
2022/04/04 09:00:12;;;;;;;10.93;3.15;;;;;;;;;;1855421;76;21064;-49
2022/04/04 09:02:40;;;;;;;3.47;1.87;;;;;;;;;;1840284;77;21053;-51
2022/04/04 09:05:10;;;;;;;5.83;2.62;;;;;;;;;;1840518;78;21088;-50
2022/04/04 09:07:39;;;;;;;8.05;2.67;;;;;;;;;;1840411;76;21020;-51
2022/04/04 09:10:10;;;;;;;7.35;2.70;;;;;;;;;;1838955;77;21096;-49
2022/04/04 09:12:39;;;;;;;3.17;1.92;;;;;;;;;;1840291;77;21033;-54
2022/04/04 09:15:08;;;;;;;3.65;2.30;;;;;;;;;;1840289;76;21053;-51
2022/04/04 09:17:41;;;;;;;3.72;1.80;;;;;;;;;;1840565;78;21161;-52
2022/04/04 09:20:11;;;;;;;9.65;3.00;;;;;;;;;;1840411;77;21036;-49
2022/04/04 09:22:41;;;;;;;7.85;2.98;;;;;;;;;;1840369;77;21033;-49
2022/04/04 09:25:10;;;;;;;5.60;2.60;;;;;;;;;;1839749;77;21033;-47
2022/04/04 09:27:39;;;;;;;3.20;2.00;;;;;;;;;;1840338;78;21049;-53
2022/04/04 09:30:08;;;;;;;6.22;1.87;;;;;;;;;;1840557;78;21009;-53
2022/04/04 09:32:44;;;;;;;10.93;3.02;;;;;;;;;;1840391;76;21123;-51
2022/04/04 09:35:14;;;;;;;5.15;2.60;;;;;;;;;;1840682;78;21036;-52
2022/04/04 09:37:44;;;;;;;7.83;2.42;;;;;;;;;;1840379;78;21115;-51
2022/04/04 09:40:20;;;;;;;6.03;2.58;;;;;;;;;;1839616;78;21095;-51
2022/04/04 09:42:53;;;;;;;7.60;2.75;;;;;;;;;;1840325;77;21608;-52
2022/04/04 09:45:25;;;;;;;8.80;2.98;;;;;;;;;;1840412;77;21056;-51
2022/04/04 09:47:55;;;;;;;5.35;2.27;;;;;;;;;;1840685;77;21080;-49
2022/04/04 09:50:36;;;;;;;6.80;3.92;;;;;;;;;;1840378;77;21170;-50
2022/04/04 09:53:06;;;;;;;3.30;2.25;;;;;;;;;;1844033;77;21072;-48
2022/04/04 09:55:35;;;;;;;7.92;2.67;;;;;;;;;;1882202;75;21130;-51
2022/04/04 09:58:05;;;;;;;3.12;2.02;;;;;;;;;;1872921;76;21180;-49
2022/04/04 10:00:36;;;;;;;8.38;2.52;;;;;;;;;;1873988;75;21101;-51
2022/04/04 10:03:07;;;;;;;7.72;2.60;;;;;;;;;;1883706;76;21023;-51
2022/04/04 10:05:36;;;;;;;5.87;3.37;;;;;;;;;;1883952;76;21058;-53
2022/04/04 10:08:06;;;;;;;10.43;2.92;;;;;;;;;;1883937;76;21120;-51
2022/04/04 10:10:34;;;;;;;4.85;3.20;;;;;;;;;;1884117;75;21144;-51
2022/04/04 10:13:03;;;;;;;8.15;2.62;;;;;;;;;;1883968;76;21031;-50
2022/04/04 10:15:33;;;;;;;4.33;2.02;;;;;;;;;;1884040;75;21100;-49
2022/04/04 10:18:02;;;;;;;4.87;3.02;;;;;;;;;;1884104;75;21042;-51
2022/04/04 10:20:31;;;;;;;5.53;2.92;;;;;;;;;;1883900;76;21019;-47
2022/04/04 10:23:00;;;;;;;7.95;2.12;;;;;;;;;;1884066;76;21080;-51
2022/04/04 10:25:29;;;;;;;8.05;2.40;;;;;;;;;;1884084;76;21074;-50
2022/04/04 10:27:59;;;;;;;3.50;2.00;;;;;;;;;;1883938;76;21082;-48
2022/04/04 10:30:32;;;;;;;5.97;2.20;;;;;;;;;;1883968;76;21144;-47
2022/04/04 10:33:01;;;;;;;7.12;2.25;;;;;;;;;;1877037;76;21074;-50
2022/04/04 10:35:31;;;;;;;5.95;2.45;;;;;;;;;;1883985;76;21076;-48
2022/04/04 10:38:01;;;;;;;6.35;3.37;;;;;;;;;;1884148;75;21547;-50
2022/04/04 10:40:30;;;;;;;6.83;2.33;;;;;;;;;;1883989;75;21143;-49
2022/04/04 10:43:09;;;;;;;3.77;2.00;;;;;;;;;;1866254;76;21162;-50
2022/04/04 10:45:39;;;;;;;4.50;2.05;;;;;;;;;;1863782;76;21073;-50
2022/04/04 10:48:09;;;;;;;8.18;2.20;;;;;;;;;;1854095;76;21112;-49
2022/04/04 10:50:39;;;;;;;7.75;2.27;;;;;;;;;;1851987;76;21096;-46
2022/04/04 10:53:08;;;;;;;3.85;1.92;;;;;;;;;;1850609;76;21080;-51
2022/04/04 10:55:38;;;;;;;2.70;1.70;;;;;;;;;;1851516;76;21149;-52
2022/04/04 10:58:14;;;;;;;4.65;2.33;;;;;;;;;;1851518;76;21114;-51
2022/04/04 11:01:04;;;;;;;4.33;2.70;;;;;;;;;;1850866;77;22147;-50
2022/04/04 11:03:34;;;;;;;3.20;2.17;;;;;;;;;;1828659;77;21124;-51
2022/04/04 11:09:18;;;;;;;4.10;2.42;;;;;;;;;;1828860;78;21058;-51
2022/04/04 11:11:48;;;;;;;9.15;2.80;;;;;;;;;;1828728;77;21054;-52
2022/04/04 11:14:42;;;;;;;5.97;2.50;;;;;;;;;;1828777;77;21111;-53
2022/04/04 11:17:17;;;;;;;5.12;2.72;;;;;;;;;;1828978;78;21061;-51
2022/04/04 11:19:46;;;;;;;2.83;2.00;;;;;;;;;;1828521;77;21050;-52
2022/04/04 11:22:19;;;;;;;5.55;2.25;;;;;;;;;;1828794;77;21053;-47
2022/04/04 11:24:51;;;;;;;4.40;2.87;;;;;;;;;;1828874;78;21085;-47
2022/04/04 11:27:21;;;;;;;9.25;2.02;;;;;;;;;;1828613;78;21058;-47
2022/04/04 11:29:49;;;;;;;5.70;2.52;;;;;;;;;;1828900;77;21108;-48
2022/04/04 11:32:25;;;;;;;5.15;2.22;;;;;;;;;;1828702;77;21046;-50
2022/04/04 11:34:59;;;;;;;3.42;2.50;;;;;;;;;;1828781;78;21028;-48
2022/04/04 11:37:26;;;;;;;10.00;2.87;;;;;;;;;;1827938;77;21085;-50
2022/04/04 11:40:03;;;;;;;8.03;3.15;;;;;;;;;;1828524;77;21495;-48
2022/04/04 11:42:25;;;;;;;6.92;2.62;;;;;;;;;;1827915;77;21631;-51
2022/04/04 11:44:53;;;;;;;3.90;2.37;;;;;;;;;;1828825;77;21112;-51
2022/04/04 11:47:22;;;;;;;6.92;2.50;;;;;;;;;;1828573;78;21033;-52
2022/04/04 11:49:54;;;;;;;14.43;3.12;;;;;;;;;;1828712;77;21113;-51
2022/04/04 11:52:24;;;;;;;2.55;2.00;;;;;;;;;;1828695;77;21536;-50
2022/04/04 11:54:51;;;;;;;1.95;1.80;;;;;;;;;;1828700;77;22128;-50
2022/04/04 11:57:25;;;;;;;3.02;2.00;;;;;;;;;;1828921;77;21145;-52
2022/04/04 11:59:51;;;;;;;4.92;2.20;;;;;;;;;;1828002;78;21062;-51
2022/04/04 12:02:23;;;;;;;7.42;1.95;;;;;;;;;;1828764;77;21053;-52
2022/04/04 12:04:51;;;;;;;3.83;2.12;;;;;;;;;;1830772;77;21771;-52
2022/04/04 12:07:20;;;;;;;6.33;2.42;;;;;;;;;;1870381;76;21148;-51
2022/04/04 12:09:51;;;;;;;4.55;2.20;;;;;;;;;;1870278;76;21035;-50
2022/04/04 12:12:20;;;;;;;1.92;1.67;;;;;;;;;;1870367;77;21031;-52
2022/04/04 12:14:49;;;;;;;5.92;2.45;;;;;;;;;;1870275;77;21043;-53
2022/04/04 12:17:19;;;;;;;6.08;2.47;;;;;;;;;;1870066;77;21140;-51
2022/04/04 12:19:50;;;;;;;3.33;1.82;;;;;;;;;;1869695;76;21055;-50
2022/04/04 12:25:06;;;;;;;5.62;2.62;;;;;;;;;;1870383;77;21106;-48
2022/04/04 12:27:34;;;;;;;5.22;2.58;;;;;;;;;;1870341;77;21113;-53
2022/04/04 12:30:07;;;;;;;6.87;3.33;;;;;;;;;;1870167;76;21038;-53
2022/04/04 12:32:37;;;;;;;2.15;1.62;;;;;;;;;;1870324;77;21152;-53
2022/04/04 12:35:07;;;;;;;3.60;2.70;;;;;;;;;;1869806;76;21113;-49
2022/04/04 12:37:37;;;;;;;5.15;2.25;;;;;;;;;;1870246;77;21156;-48
2022/04/04 12:40:13;;;;;;;5.17;2.45;;;;;;;;;;1870207;77;21533;-52
2022/04/04 12:42:41;;;;;;;4.15;2.40;;;;;;;;;;1870223;77;21098;-52
2022/04/04 12:45:16;;;;;;;2.15;1.95;;;;;;;;;;1870277;77;21151;-54
2022/04/04 12:48:01;;;;;;;5.53;3.27;;;;;;;;;;1868924;76;21580;-53
2022/04/04 12:50:31;;;;;;;6.05;2.25;;;;;;;;;;1870347;77;21046;-53
2022/04/04 12:53:00;;;;;;;7.03;2.58;;;;;;;;;;1867325;76;21125;-54
2022/04/04 12:55:29;;;;;;;3.58;2.17;;;;;;;;;;1870301;77;21109;-53
2022/04/04 12:57:59;;;;;;;9.58;6.37;;;;;;;;;;1870283;77;21051;-53
2022/04/04 13:00:38;;;;;;;7.95;3.98;;;;;;;;;;1867371;76;21125;-53
2022/04/04 13:03:22;;;;;;;11.25;3.15;;;;;;;;;;1869958;76;21059;-53
2022/04/04 13:05:52;;;;;;;4.28;3.37;;;;;;;;;;1870203;76;21116;-50
2022/04/04 13:08:22;;;;;;;5.53;2.37;;;;;;;;;;1870175;77;21022;-52
2022/04/04 13:11:11;;;;;;;4.08;2.70;;;;;;;;;;1869487;76;21067;-52
2022/04/04 13:13:40;;;;;;;8.83;3.00;;;;;;;;;;1869596;76;21031;-52
2022/04/04 13:16:10;;;;;;;4.83;2.33;;;;;;;;;;1867423;76;21121;-48
2022/04/04 13:18:39;;;;;;;5.50;2.98;;;;;;;;;;1867312;76;21086;-51
2022/04/04 13:21:08;;;;;;;6.72;2.75;;;;;;;;;;1870328;77;21089;-52
2022/04/04 13:23:37;;;;;;;8.80;3.05;;;;;;;;;;1870224;77;21043;-53
2022/04/04 13:26:06;;;;;;;8.83;3.12;;;;;;;;;;1870337;77;21094;-50
2022/04/04 13:28:34;;;;;;;4.40;2.65;;;;;;;;;;1870137;77;21078;-51
2022/04/04 13:31:03;;;;;;;3.40;2.22;;;;;;;;;;1870278;77;21030;-52
2022/04/04 13:33:32;;;;;;;5.35;2.80;;;;;;;;;;1870393;77;21164;-48
2022/04/04 13:36:03;;;;;;;3.45;2.37;;;;;;;;;;1870173;77;21098;-49
2022/04/04 13:38:31;;;;;;;4.05;2.65;;;;;;;;;;1870309;77;21481;-54
2022/04/04 13:41:00;;;;;;;7.33;3.25;;;;;;;;;;1870568;77;21101;-53
2022/04/04 13:43:29;;;;;;;10.15;2.90;;;;;;;;;;1870247;77;21513;-53
2022/04/04 13:45:58;;;;;;;4.30;2.52;;;;;;;;;;1870540;77;21054;-50
2022/04/04 13:48:26;;;;;;;5.78;2.40;;;;;;;;;;1870481;77;21086;-52
2022/04/04 13:50:57;;;;;;;6.00;3.27;;;;;;;;;;1870268;77;21114;-53
2022/04/04 13:53:25;;;;;;;7.67;2.70;;;;;;;;;;1870525;77;21080;-51
2022/04/04 13:55:54;;;;;;;6.22;2.75;;;;;;;;;;1870298;77;21130;-52
2022/04/04 13:58:23;;;;;;;5.85;3.08;;;;;;;;;;1870241;77;21098;-48
2022/04/04 14:00:52;;;;;;;6.83;4.20;;;;;;;;;;1870415;77;21078;-51
2022/04/04 14:03:20;;;;;;;6.50;2.90;;;;;;;;;;1870396;77;21360;-50
2022/04/04 14:05:55;;;;;;;8.70;2.75;;;;;;;;;;1877482;76;21062;-54
2022/04/04 14:08:22;;;;;;;6.87;3.20;;;;;;;;;;1881353;76;21520;-51
2022/04/04 14:10:50;;;;;;;9.25;3.27;;;;;;;;;;1882006;76;21492;-51
2022/04/04 14:13:19;;;;;;;2.92;1.85;;;;;;;;;;1882263;76;21112;-53
2022/04/04 14:15:49;;;;;;;4.20;2.40;;;;;;;;;;1882272;76;21064;-51
2022/04/04 14:18:18;;;;;;;5.42;3.40;;;;;;;;;;1882326;76;21042;-52
2022/04/04 14:20:47;;;;;;;4.30;2.55;;;;;;;;;;1882270;76;21050;-54
2022/04/04 14:23:16;;;;;;;6.55;2.77;;;;;;;;;;1882305;76;21175;-51
2022/04/04 14:25:45;;;;;;;10.53;3.47;;;;;;;;;;1882312;76;21046;-51
2022/04/04 14:28:14;;;;;;;5.58;2.92;;;;;;;;;;1882000;76;21038;-51
2022/04/04 14:30:42;;;;;;;4.83;3.10;;;;;;;;;;1882193;76;21104;-48
2022/04/04 14:33:11;;;;;;;44.88;18.42;;;;;;;;;;1882391;76;21337;-55
2022/04/04 14:35:40;;;;;;;4.87;3.33;;;;;;;;;;1882216;76;21034;-49
2022/04/04 14:38:09;;;;;;;8.93;3.37;;;;;;;;;;1882475;76;21039;-53
2022/04/04 14:40:41;;;;;;;4.72;3.20;;;;;;;;;;1882377;76;21090;-52
2022/04/04 14:43:08;;;;;;;7.97;4.55;;;;;;;;;;1881860;76;21531;-52
2022/04/04 14:45:37;;;;;;;8.83;2.83;;;;;;;;;;1882321;76;21046;-48
2022/04/04 14:48:07;;;;;;;6.60;2.40;;;;;;;;;;1882305;76;21110;-51
2022/04/04 14:50:37;;;;;;;4.90;3.02;;;;;;;;;;1882190;76;21046;-48
2022/04/04 14:53:05;;;;;;;10.30;4.03;;;;;;;;;;1882311;76;21417;-48
2022/04/04 14:55:34;;;;;;;6.30;3.27;;;;;;;;;;1882321;76;21054;-51
2022/04/04 14:58:03;;;;;;;9.08;3.33;;;;;;;;;;1882153;76;21073;-51
2022/04/04 15:00:34;;;;;;;8.58;3.20;;;;;;;;;;1882455;76;21039;-51
2022/04/04 15:03:03;;;;;;;10.82;3.37;;;;;;;;;;1882334;76;21096;-50
2022/04/04 15:05:32;;;;;;;5.47;3.75;;;;;;;;;;1882196;76;21050;-53
2022/04/04 15:08:01;;;;;;;7.75;3.17;;;;;;;;;;1882391;76;21090;-48
2022/04/04 15:11:31;;;;;;;9.58;3.20;;;12.90;59.00;;;;;;1972908;72;26286;-51